Terminal Aerodrome Forecast
Issued by NWS

Home | Current Version | Previous Version | Text Only | Print | Product List | Glossary On
Versions: 1 2 3 4 5 6 7 8 9 10 11 12 13 14 15 16 17 18 19 20 21 22 23 24 25 26 27 28 29 30 31 32 33 34 35 36 37 38
000
FTAK31 PANC 280116 AAA
TAFADU
TAF AMD
PADU 280116Z 2801/2824 09010KT P6SM -RA SCT015 BKN025
      TEMPO 2802/2806 BKN015
     FM280600 03016G28KT P6SM -RA OVC015
     FM281200 36028G40KT 5SM -RA BR BKN010
     FM281800 02032G42KT 3SM -RA BR OVC008
     FM282100 02025G32KT P6SM -SHRA SCT008 OVC012=

USA.gov is the U.S. government's official web portal to all federal, state and local government web resources and services.